Nebo, West Virginia
Current Conditions -  °F | °C
As of 7:54 AM on Tuesday 21 Oct 2014 (Local Time) from KCRW Reporting Station
Overcast Overcast  
Wind Chill: 52°   Ceiling: 1700
Heat Index: 52°   Visibility: 9mi
Dew Point: 51°   Wind: 3mph
Humidity: 97%   Direction: 250°WSW
Pressure: 29.91"   Gusts: NA
Location:  38.63°N, 81.04°W
Report Text: KCRW 211154Z 25003KT 9SM OVC017 11/11 A2991 RMK AO2 SLP127 VLY FG 60004 70007 T01110106 10122 20106 53001
Loading
Personal Weather Stations






























Interactive Weather Map
Tropical Storm Tracking
New forecast layout! Learn more

10-Day Weather Forecast

Advertisements
Track Severe Weather on mobile